Time;durP1;ratioP1;P1;durP2;ratioP2;P2;SDS_P1;SDS_P2;PMS_P1;PMS_P2;Temp;Humidity;BMP_temperature;BMP_pressure;BME280_temperature;BME280_humidity;BME280_pressure;Samples;Min_cycle;Max_cycle;Signal;HPM_P1;HPM_P2
2022/06/24 00:00:06;;;;;;;;;;;22.10;99.90;22.10;99108.00;;;;346075;28;83473;-89
2022/06/24 00:00:18;;;;;;;;;;;22.10;99.90;22.10;99107.00;;;;343248;28;86287;-89
2022/06/24 00:00:36;;;;;;;;;;;22.10;99.90;22.10;99107.00;;;;347530;28;83207;-89
2022/06/24 00:00:47;;;;;;;;;;;22.10;99.90;22.10;99103.00;;;;345978;28;87593;-89
2022/06/24 00:00:59;;;;;;;;;;;22.10;99.90;22.10;99108.00;;;;345637;28;83409;-89
2022/06/24 00:01:14;;;;;;;;;;;22.10;99.90;22.10;99111.00;;;;347044;28;87654;-89
2022/06/24 00:01:26;;;;;;;;;;;22.10;99.90;22.10;99111.00;;;;346089;28;83446;-89
2022/06/24 00:01:38;;;;;;;;;;;22.10;99.90;22.10;99107.00;;;;346002;28;85165;-89
2022/06/24 00:02:13;;;;;;;;;;;22.10;99.90;22.10;99110.00;;;;346092;28;83497;-89
2022/06/24 00:02:25;;;;;;;;;;;22.10;99.90;22.10;99103.00;;;;344525;28;86382;-89
2022/06/24 00:02:38;;;;;;;;;;;22.10;99.90;22.20;99103.00;;;;347656;27;83514;-89
2022/06/24 00:02:55;;;;;;;;;;;22.10;99.90;22.20;99108.00;;;;346000;28;87630;-89
2022/06/24 00:03:06;;;;;;;;;;;22.10;99.90;22.20;99100.00;;;;348931;27;83148;-89
2022/06/24 00:03:19;;;;;;;;;;;22.10;99.90;22.20;99103.00;;;;348802;27;86455;-89
2022/06/24 00:03:31;;;;;;;;;;;22.10;99.90;22.30;99098.00;;;;347695;28;83291;-89
2022/06/24 00:03:44;;;;;;;;;;;22.10;99.90;22.20;99099.00;;;;345964;28;87318;-89
2022/06/24 00:03:56;;;;;;;;;;;22.10;99.90;22.20;99100.00;;;;347672;27;82521;-89
2022/06/24 00:04:08;;;;;;;;;;;22.10;99.90;22.30;99091.00;;;;348298;27;85745;-89
2022/06/24 00:04:22;;;;;;;;;;;22.10;99.90;22.30;99105.00;;;;344771;28;82338;-89
2022/06/24 00:04:34;;;;;;;;;;;22.10;99.90;22.30;99101.00;;;;347351;28;84602;-89
2022/06/24 00:04:53;;;;;;;;;;;22.10;99.90;22.20;99104.00;;;;347497;28;83263;-89
2022/06/24 00:05:10;;;;;;;;;;;22.10;99.90;22.20;99102.00;;;;347116;28;86416;-89
2022/06/24 00:05:22;;;;;;;;;;;22.10;99.90;22.20;99097.00;;;;343394;28;83217;-89
2022/06/24 00:05:34;;;;;;;;;;;22.10;99.90;22.20;99095.00;;;;347187;28;87043;-89
2022/06/24 00:05:46;;;;;;;;;;;22.10;99.90;22.20;99101.00;;;;346046;28;83314;-90
2022/06/24 00:05:58;;;;;;;;;;;22.10;99.90;22.20;99103.00;;;;347267;28;86490;-89
2022/06/24 00:06:16;;;;;;;;;;;22.10;99.90;22.20;99095.00;;;;344716;28;83417;-89
2022/06/24 00:06:45;;;;;;;;;;;22.10;99.90;22.20;99096.00;;;;345984;28;88108;-89
2022/06/24 00:06:57;;;;;;;;;;;22.10;99.90;22.20;99091.00;;;;347073;28;83383;-89
2022/06/24 00:07:13;;;;;;;;;;;22.10;99.90;22.20;99095.00;;;;348467;27;85609;-89
2022/06/24 00:07:25;;;;;;;;;;;22.10;99.90;22.20;99090.00;;;;349777;27;83343;-90
2022/06/24 00:07:46;;;;;;;;;;;22.10;99.90;22.10;99092.00;;;;345989;28;86138;-89
2022/06/24 00:07:58;;;;;;;;;;;22.10;99.90;22.10;99091.00;;;;346303;28;83709;-89
2022/06/24 00:08:10;;;;;;;;;;;22.10;99.90;22.10;99088.00;;;;346099;28;85958;-89
2022/06/24 00:08:22;;;;;;;;;;;22.10;99.90;22.10;99091.00;;;;346040;28;83163;-90
2022/06/24 00:08:48;;;;;;;;;;;22.20;99.90;22.10;99093.00;;;;345894;28;87576;-89
2022/06/24 00:09:00;;;;;;;;;;;22.10;99.90;22.20;99091.00;;;;347404;28;83276;-89
2022/06/24 00:09:13;;;;;;;;;;;22.10;99.90;22.10;99095.00;;;;344480;28;86371;-89
2022/06/24 00:09:29;;;;;;;;;;;22.10;99.90;22.10;99086.00;;;;347230;28;83211;-89
2022/06/24 00:09:40;;;;;;;;;;;22.10;99.90;22.20;99091.00;;;;347429;28;84927;-89
2022/06/24 00:09:52;;;;;;;;;;;22.10;99.90;22.20;99092.00;;;;347209;28;83386;-89
2022/06/24 00:10:11;;;;;;;;;;;22.10;99.90;22.10;99092.00;;;;346961;28;87176;-89
2022/06/24 00:10:25;;;;;;;;;;;22.10;99.90;22.10;99092.00;;;;346089;28;83466;-89
2022/06/24 00:10:36;;;;;;;;;;;22.10;99.90;22.10;99095.00;;;;345969;28;87348;-89
2022/06/24 00:10:48;;;;;;;;;;;22.10;99.90;22.20;99091.00;;;;346090;28;83420;-89
2022/06/24 00:11:11;;;;;;;;;;;22.10;99.90;22.10;99094.00;;;;346552;28;86143;-89
2022/06/24 00:11:24;;;;;;;;;;;22.10;99.90;22.10;99084.00;;;;347525;28;82535;-89
2022/06/24 00:11:36;;;;;;;;;;;22.10;99.90;22.10;99094.00;;;;345871;28;87301;-89
2022/06/24 00:12:00;;;;;;;;;;;22.10;99.90;22.10;99096.00;;;;344638;28;82574;-89
2022/06/24 00:12:14;;;;;;;;;;;22.10;99.90;22.10;99101.00;;;;346028;28;85026;-89
2022/06/24 00:12:26;;;;;;;;;;;22.10;99.90;22.10;99083.00;;;;347345;28;82400;-89
2022/06/24 00:12:39;;;;;;;;;;;22.10;99.90;22.10;99088.00;;;;347004;28;86917;-89
2022/06/24 00:12:51;;;;;;;;;;;22.10;99.90;22.10;99091.00;;;;344741;28;82423;-89
2022/06/24 00:13:04;;;;;;;;;;;22.10;99.90;22.10;99093.00;;;;346877;28;91208;-89
2022/06/24 00:13:16;;;;;;;;;;;22.10;99.90;22.20;99092.00;;;;345986;28;83503;-89
2022/06/24 00:13:38;;;;;;;;;;;22.10;99.90;22.20;99097.00;;;;345996;28;87105;-90
2022/06/24 00:13:50;;;;;;;;;;;22.10;99.90;22.20;99091.00;;;;346067;28;82419;-89
2022/06/24 00:14:13;;;;;;;;;;;22.10;99.90;22.20;99092.00;;;;347226;28;87372;-89
2022/06/24 00:14:25;;;;;;;;;;;22.10;99.90;22.20;99097.00;;;;348877;27;82597;-89
2022/06/24 00:14:37;;;;;;;;;;;22.10;99.90;22.20;99097.00;;;;345953;28;86325;-89
2022/06/24 00:14:59;;;;;;;;;;;22.10;99.90;22.20;99094.00;;;;347422;28;83389;-89
2022/06/24 00:15:11;;;;;;;;;;;22.10;99.90;22.10;99091.00;;;;349920;27;87144;-89
2022/06/24 00:15:26;;;;;;;;;;;22.10;99.90;22.10;99103.00;;;;347491;28;82392;-88
2022/06/24 00:15:38;;;;;;;;;;;22.10;99.90;22.10;99100.00;;;;347389;28;86119;-89
2022/06/24 00:15:50;;;;;;;;;;;22.10;99.90;22.20;99099.00;;;;347395;28;82386;-89
2022/06/24 00:16:02;;;;;;;;;;;22.10;99.90;22.20;99100.00;;;;345476;28;87524;-89
2022/06/24 00:16:14;;;;;;;;;;;22.10;99.90;22.20;99098.00;;;;345748;28;82559;-89
2022/06/24 00:16:26;;;;;;;;;;;22.10;99.90;22.10;99105.00;;;;345902;28;83975;-89
2022/06/24 00:16:54;;;;;;;;;;;22.10;99.90;22.20;99104.00;;;;348837;27;83247;-89
2022/06/24 00:17:10;;;;;;;;;;;22.10;99.90;22.20;99098.00;;;;348727;27;87574;-89
2022/06/24 00:17:23;;;;;;;;;;;22.10;99.90;22.20;99092.00;;;;347453;28;83454;-89
2022/06/24 00:17:35;;;;;;;;;;;22.10;99.90;22.20;99102.00;;;;344816;28;84708;-89
2022/06/24 00:17:46;;;;;;;;;;;22.10;99.90;22.20;99085.00;;;;347378;28;83393;-89
2022/06/24 00:18:12;;;;;;;;;;;22.10;99.90;22.30;99103.00;;;;347366;27;87401;-89
2022/06/24 00:18:23;;;;;;;;;;;22.10;99.90;22.30;99101.00;;;;346061;28;83315;-89
2022/06/24 00:18:36;;;;;;;;;;;22.10;99.90;22.20;99096.00;;;;348811;27;87054;-89
2022/06/24 00:19:07;;;;;;;;;;;22.10;99.90;22.20;99098.00;;;;346174;28;82510;-90
2022/06/24 00:19:19;;;;;;;;;;;22.10;99.90;22.20;99096.00;;;;345980;28;85080;-89
2022/06/24 00:19:34;;;;;;;;;;;22.10;99.90;22.20;99101.00;;;;347155;28;83472;-90
2022/06/24 00:20:00;;;;;;;;;;;22.10;99.90;22.20;99110.00;;;;346991;28;85545;-89
2022/06/24 00:20:15;;;;;;;;;;;22.10;99.90;22.20;99103.00;;;;347465;28;82518;-89
2022/06/24 00:20:27;;;;;;;;;;;22.10;99.90;22.20;99097.00;;;;344574;28;86338;-89
2022/06/24 00:20:43;;;;;;;;;;;22.10;99.90;22.10;99100.00;;;;346089;28;82492;-89
2022/06/24 00:20:55;;;;;;;;;;;22.10;99.90;22.10;99097.00;;;;343248;28;87281;-89
2022/06/24 00:21:13;;;;;;;;;;;22.10;99.90;22.10;99096.00;;;;344707;28;83360;-90
2022/06/24 00:21:24;;;;;;;;;;;22.10;99.90;22.10;99099.00;;;;345877;28;87737;-89
2022/06/24 00:21:36;;;;;;;;;;;22.10;99.90;22.10;99095.00;;;;344655;28;83507;-89
2022/06/24 00:22:08;;;;;;;;;;;22.10;99.90;22.10;99096.00;;;;345874;28;87704;-89
2022/06/24 00:22:20;;;;;;;;;;;22.10;99.90;22.10;99089.00;;;;346096;28;83389;-89
2022/06/24 00:22:39;;;;;;;;;;;22.10;99.90;22.10;99092.00;;;;347166;28;86792;-89
2022/06/24 00:22:51;;;;;;;;;;;22.10;99.90;22.20;99091.00;;;;346050;28;83305;-89
2022/06/24 00:23:07;;;;;;;;;;;22.10;99.90;22.20;99097.00;;;;347286;28;87243;-89
2022/06/24 00:23:19;;;;;;;;;;;22.10;99.90;22.30;99093.00;;;;345959;28;83376;-89
2022/06/24 00:23:31;;;;;;;;;;;22.10;99.90;22.30;99085.00;;;;347228;28;87328;-89
2022/06/24 00:23:43;;;;;;;;;;;22.10;99.90;22.30;99085.00;;;;347492;28;82391;-89
2022/06/24 00:23:55;;;;;;;;;;;22.10;99.90;22.20;99086.00;;;;347390;27;86237;-89
2022/06/24 00:24:06;;;;;;;;;;;22.10;99.90;22.20;99084.00;;;;348872;27;83315;-89
2022/06/24 00:24:21;;;;;;;;;;;22.10;99.90;22.20;99087.00;;;;345746;28;88057;-89
2022/06/24 00:24:34;;;;;;;;;;;22.10;99.90;22.30;99083.00;;;;345944;28;83428;-89
2022/06/24 00:24:46;;;;;;;;;;;22.10;99.90;22.30;99080.00;;;;345943;28;87574;-89
2022/06/24 00:25:19;;;;;;;;;;;22.10;99.90;22.20;99092.00;;;;350749;27;83688;-89
2022/06/24 00:25:30;;;;;;;;;;;22.10;99.90;22.10;99085.00;;;;348622;27;87056;-89
2022/06/24 00:25:43;;;;;;;;;;;22.10;99.90;22.10;99090.00;;;;347218;28;83513;-89
2022/06/24 00:25:54;;;;;;;;;;;22.10;99.90;22.20;99079.00;;;;347297;27;87705;-89
2022/06/24 00:26:06;;;;;;;;;;;22.10;99.90;22.10;99082.00;;;;345783;28;83423;-89
2022/06/24 00:26:18;;;;;;;;;;;22.10;99.90;22.10;99087.00;;;;345953;28;87395;-90
2022/06/24 00:26:38;;;;;;;;;;;22.10;99.90;22.10;99074.00;;;;346004;28;83376;-89
2022/06/24 00:26:55;;;;;;;;;;;22.10;99.90;22.10;99078.00;;;;347392;28;85235;-89
2022/06/24 00:27:18;;;;;;;;;;;22.10;99.90;22.10;99084.00;;;;347420;27;83305;-89
2022/06/24 00:27:30;;;;;;;;;;;22.10;99.90;22.10;99082.00;;;;348726;27;84948;-89
2022/06/24 00:27:42;;;;;;;;;;;22.10;99.90;22.00;99077.00;;;;347460;28;83483;-89
2022/06/24 00:28:01;;;;;;;;;;;22.10;99.90;22.00;99085.00;;;;344412;28;87194;-89
2022/06/24 00:28:13;;;;;;;;;;;22.10;99.90;22.10;99082.00;;;;345260;28;82562;-89
2022/06/24 00:28:25;;;;;;;;;;;22.10;99.90;22.20;99077.00;;;;345915;28;85115;-89
2022/06/24 00:28:37;;;;;;;;;;;22.10;99.90;22.20;99080.00;;;;345959;28;82532;-89
2022/06/24 00:29:00;;;;;;;;;;;22.10;99.90;22.20;99080.00;;;;347282;28;87548;-89
2022/06/24 00:29:16;;;;;;;;;;;22.10;99.90;22.20;99081.00;;;;345989;28;82388;-89
2022/06/24 00:29:29;;;;;;;;;;;22.10;99.90;22.20;99078.00;;;;347331;28;87202;-89
2022/06/24 00:29:41;;;;;;;;;;;22.10;99.90;22.20;99076.00;;;;347404;28;83376;-89
2022/06/24 00:29:54;;;;;;;;;;;22.10;99.90;22.20;99079.00;;;;347132;27;87441;-89
2022/06/24 00:30:14;;;;;;;;;;;22.10;99.90;22.10;99074.00;;;;346171;28;82517;-89
2022/06/24 00:30:25;;;;;;;;;;;22.10;99.90;22.10;99067.00;;;;347269;28;87480;-89
2022/06/24 00:30:38;;;;;;;;;;;22.10;99.90;22.20;99072.00;;;;345981;28;83418;-89
2022/06/24 00:30:51;;;;;;;;;;;22.10;99.90;22.20;99068.00;;;;344651;28;87007;-89
2022/06/24 00:31:03;;;;;;;;;;;22.10;99.90;22.20;99072.00;;;;347003;28;82813;-89
2022/06/24 00:31:15;;;;;;;;;;;22.10;99.90;22.20;99068.00;;;;345725;28;86498;-89
2022/06/24 00:31:27;;;;;;;;;;;22.10;99.90;22.10;99068.00;;;;347381;28;82498;-88
2022/06/24 00:31:39;;;;;;;;;;;22.10;99.90;22.10;99067.00;;;;345899;28;87623;-89
2022/06/24 00:32:03;;;;;;;;;;;22.10;99.90;22.20;99075.00;;;;344393;28;82579;-89
2022/06/24 00:32:15;;;;;;;;;;;22.10;99.90;22.10;99068.00;;;;346054;28;83490;-89
2022/06/24 00:32:31;;;;;;;;;;;22.10;99.90;22.10;99069.00;;;;346009;28;83521;-89
2022/06/24 00:32:43;;;;;;;;;;;22.10;99.90;22.10;99071.00;;;;347394;27;84661;-89
2022/06/24 00:33:19;;;;;;;;;;;22.10;99.90;22.20;99070.00;;;;346084;28;83288;-89
2022/06/24 00:33:32;;;;;;;;;;;22.10;99.90;22.20;99072.00;;;;348764;27;85311;-89
2022/06/24 00:33:46;;;;;;;;;;;22.10;99.90;22.10;99066.00;;;;346015;28;83303;-89
2022/06/24 00:33:58;;;;;;;;;;;22.10;99.90;22.10;99071.00;;;;346316;28;87919;-89
2022/06/24 00:34:23;;;;;;;;;;;22.10;99.90;22.00;99066.00;;;;345315;28;83456;-89
2022/06/24 00:34:36;;;;;;;;;;;22.10;99.90;22.00;99067.00;;;;345862;28;85891;-89
2022/06/24 00:35:05;;;;;;;;;;;22.10;99.90;22.00;99068.00;;;;343369;28;83427;-89
2022/06/24 00:35:17;;;;;;;;;;;22.10;99.90;22.00;99073.00;;;;345899;28;86177;-89
2022/06/24 00:35:42;;;;;;;;;;;22.10;99.90;22.00;99070.00;;;;347380;28;83366;-89
2022/06/24 00:35:59;;;;;;;;;;;22.10;99.90;22.00;99071.00;;;;347401;28;84635;-89
2022/06/24 00:36:11;;;;;;;;;;;22.10;99.90;22.00;99075.00;;;;347401;27;83537;-89
2022/06/24 00:36:23;;;;;;;;;;;22.00;99.90;22.00;99070.00;;;;347376;28;86159;-89
2022/06/24 00:36:34;;;;;;;;;;;22.00;99.90;22.00;99071.00;;;;345927;28;82480;-89
2022/06/24 00:36:46;;;;;;;;;;;22.10;99.90;22.00;99079.00;;;;344676;28;83903;-89
2022/06/24 00:36:58;;;;;;;;;;;22.00;99.90;22.00;99075.00;;;;346613;28;85660;-89
2022/06/24 00:37:26;;;;;;;;;;;22.00;99.90;22.10;99070.00;;;;344872;28;87111;-89
2022/06/24 00:37:39;;;;;;;;;;;22.10;99.90;22.10;99076.00;;;;345982;28;82444;-89
2022/06/24 00:37:51;;;;;;;;;;;22.00;99.90;22.10;99075.00;;;;347247;28;86029;-89
2022/06/24 00:38:19;;;;;;;;;;;22.10;99.90;22.20;99069.00;;;;345626;28;83540;-89
2022/06/24 00:38:35;;;;;;;;;;;22.10;99.90;22.20;99086.00;;;;343123;28;87456;-89
2022/06/24 00:38:52;;;;;;;;;;;22.10;99.90;22.20;99073.00;;;;347603;28;83318;-89
2022/06/24 00:39:04;;;;;;;;;;;22.10;99.90;22.20;99078.00;;;;347350;28;87125;-89
2022/06/24 00:39:15;;;;;;;;;;;22.10;99.90;22.20;99072.00;;;;347183;27;82989;-89
2022/06/24 00:39:33;;;;;;;;;;;22.10;99.90;22.10;99081.00;;;;347380;28;87110;-89
2022/06/24 00:39:45;;;;;;;;;;;22.10;99.90;22.20;99079.00;;;;347427;28;83300;-89
2022/06/24 00:40:17;;;;;;;;;;;22.10;99.90;22.10;99082.00;;;;345469;28;87086;-89
2022/06/24 00:40:30;;;;;;;;;;;22.10;99.90;22.10;99076.00;;;;345359;28;83617;-89
2022/06/24 00:40:42;;;;;;;;;;;22.10;99.90;22.10;99083.00;;;;347349;28;86819;-89
2022/06/24 00:41:03;;;;;;;;;;;22.10;99.90;22.10;99077.00;;;;348922;27;83407;-89
2022/06/24 00:41:15;;;;;;;;;;;22.10;99.90;22.20;99079.00;;;;344615;28;87760;-89
2022/06/24 00:41:27;;;;;;;;;;;22.10;99.90;22.20;99084.00;;;;344663;28;83475;-89
2022/06/24 00:41:39;;;;;;;;;;;22.10;99.90;22.10;99077.00;;;;343207;28;86081;-89
2022/06/24 00:41:51;;;;;;;;;;;22.10;99.90;22.10;99082.00;;;;344621;28;83435;-89
2022/06/24 00:42:03;;;;;;;;;;;22.10;99.90;22.10;99077.00;;;;345864;28;85926;-89
2022/06/24 00:42:16;;;;;;;;;;;22.10;99.90;22.10;99082.00;;;;346126;28;82460;-89
2022/06/24 00:42:28;;;;;;;;;;;22.10;99.90;22.10;99083.00;;;;347255;28;87164;-89
2022/06/24 00:42:42;;;;;;;;;;;22.10;99.90;22.10;99082.00;;;;347076;27;83642;-89
2022/06/24 00:42:53;;;;;;;;;;;22.10;99.90;22.10;99081.00;;;;345802;28;87378;-89
2022/06/24 00:43:05;;;;;;;;;;;22.10;99.90;22.20;99085.00;;;;347363;28;83418;-89
2022/06/24 00:43:27;;;;;;;;;;;22.10;99.90;22.10;99092.00;;;;345781;28;86292;-89
2022/06/24 00:43:49;;;;;;;;;;;22.10;99.90;22.10;99082.00;;;;343289;28;82486;-89
2022/06/24 00:44:01;;;;;;;;;;;22.10;99.90;22.10;99083.00;;;;347982;27;87491;-89
2022/06/24 00:44:13;;;;;;;;;;;22.10;99.90;22.10;99084.00;;;;345937;28;83454;-89
2022/06/24 00:44:27;;;;;;;;;;;22.10;99.90;22.10;99082.00;;;;344547;28;86869;-89
2022/06/24 00:44:59;;;;;;;;;;;22.10;99.90;22.10;99092.00;;;;347376;28;83462;-89
2022/06/24 00:45:37;;;;;;;;;;;22.10;99.90;22.10;99086.00;;;;346913;28;86803;-89
2022/06/24 00:45:49;;;;;;;;;;;22.10;99.90;22.20;99085.00;;;;345894;28;83432;-89
2022/06/24 00:46:13;;;;;;;;;;;22.10;99.90;22.20;99092.00;;;;346793;28;87683;-89
2022/06/24 00:46:25;;;;;;;;;;;22.10;99.90;22.20;99093.00;;;;348912;27;83440;-89
2022/06/24 00:46:37;;;;;;;;;;;22.10;99.90;22.20;99082.00;;;;348593;27;86212;-89
2022/06/24 00:46:49;;;;;;;;;;;22.10;99.90;22.20;99087.00;;;;346169;28;82484;-89
2022/06/24 00:47:01;;;;;;;;;;;22.10;99.90;22.10;99095.00;;;;343869;28;87906;-89
2022/06/24 00:47:13;;;;;;;;;;;22.10;99.90;22.10;99089.00;;;;345981;28;83264;-89
2022/06/24 00:47:25;;;;;;;;;;;22.10;99.90;22.10;99089.00;;;;344606;28;86217;-89
2022/06/24 00:47:37;;;;;;;;;;;22.10;99.90;22.10;99090.00;;;;346160;28;83339;-90
2022/06/24 00:47:49;;;;;;;;;;;22.10;99.90;22.20;99085.00;;;;344514;28;86465;-90
2022/06/24 00:48:13;;;;;;;;;;;22.10;99.90;22.10;99088.00;;;;343359;28;83602;-89
2022/06/24 00:48:27;;;;;;;;;;;22.10;99.90;22.10;99092.00;;;;343285;28;87716;-89
2022/06/24 00:48:43;;;;;;;;;;;22.10;99.90;22.10;99087.00;;;;346153;28;83432;-89
2022/06/24 00:48:56;;;;;;;;;;;22.10;99.90;22.10;99095.00;;;;346155;28;83563;-89
2022/06/24 00:49:09;;;;;;;;;;;22.10;99.90;22.00;99080.00;;;;345412;28;83481;-89
2022/06/24 00:49:24;;;;;;;;;;;22.10;99.90;22.00;99079.00;;;;347402;27;86171;-89
2022/06/24 00:49:36;;;;;;;;;;;22.10;99.90;22.00;99082.00;;;;346042;28;83814;-89
2022/06/24 00:49:48;;;;;;;;;;;22.10;99.90;22.00;99089.00;;;;345869;28;86452;-89
2022/06/24 00:50:00;;;;;;;;;;;22.10;99.90;22.00;99080.00;;;;346753;28;83362;-89
2022/06/24 00:50:19;;;;;;;;;;;22.10;99.90;22.00;99080.00;;;;344779;28;86030;-89
2022/06/24 00:50:31;;;;;;;;;;;22.10;99.90;22.00;99077.00;;;;346120;28;83576;-89
2022/06/24 00:50:46;;;;;;;;;;;22.10;99.90;22.00;99081.00;;;;344543;28;86958;-89
2022/06/24 00:50:58;;;;;;;;;;;22.10;99.90;22.00;99086.00;;;;346119;28;83347;-89
2022/06/24 00:51:10;;;;;;;;;;;22.10;99.90;22.00;99075.00;;;;347404;28;86899;-89
2022/06/24 00:51:22;;;;;;;;;;;22.10;99.90;22.00;99075.00;;;;347602;28;83409;-90
2022/06/24 00:51:36;;;;;;;;;;;22.00;99.90;22.00;99073.00;;;;346057;28;86898;-89
2022/06/24 00:51:48;;;;;;;;;;;22.00;99.90;22.10;99081.00;;;;346259;28;82460;-89
2022/06/24 00:52:07;;;;;;;;;;;22.10;99.90;22.00;99075.00;;;;345565;28;85702;-89
2022/06/24 00:52:19;;;;;;;;;;;22.00;99.90;22.10;99068.00;;;;348555;27;84156;-89
2022/06/24 00:52:36;;;;;;;;;;;22.10;99.90;22.10;99075.00;;;;344327;28;85909;-89
2022/06/24 00:52:50;;;;;;;;;;;22.00;99.90;22.10;99077.00;;;;347392;28;83603;-89
2022/06/24 00:53:01;;;;;;;;;;;22.10;99.90;22.00;99070.00;;;;350196;27;86290;-90
2022/06/24 00:53:13;;;;;;;;;;;22.00;99.90;22.10;99074.00;;;;345999;28;83530;-89
2022/06/24 00:53:25;;;;;;;;;;;22.10;99.90;22.10;99075.00;;;;348745;27;87290;-89
2022/06/24 00:53:41;;;;;;;;;;;22.10;99.90;22.10;99070.00;;;;348805;27;83380;-89
2022/06/24 00:53:54;;;;;;;;;;;22.10;99.90;22.10;99073.00;;;;348484;27;86798;-89
2022/06/24 00:54:07;;;;;;;;;;;22.10;99.90;22.10;99070.00;;;;346071;28;82300;-88
2022/06/24 00:54:21;;;;;;;;;;;22.00;99.90;22.00;99069.00;;;;347359;28;86478;-89
2022/06/24 00:54:33;;;;;;;;;;;22.00;99.90;22.10;99071.00;;;;346023;28;82518;-89
2022/06/24 00:54:45;;;;;;;;;;;22.00;99.90;22.00;99067.00;;;;348609;27;87589;-89
2022/06/24 00:54:57;;;;;;;;;;;22.10;99.90;22.00;99069.00;;;;345031;28;82452;-89
2022/06/24 00:55:08;;;;;;;;;;;22.00;99.90;22.00;99074.00;;;;343215;28;86757;-89
2022/06/24 00:55:28;;;;;;;;;;;22.10;99.90;22.10;99068.00;;;;345832;28;83494;-89
2022/06/24 00:55:43;;;;;;;;;;;22.00;99.90;22.10;99065.00;;;;345932;28;86297;-90
2022/06/24 00:55:54;;;;;;;;;;;22.00;99.90;22.20;99073.00;;;;347349;28;83538;-89
2022/06/24 00:56:07;;;;;;;;;;;22.10;99.90;22.20;99064.00;;;;348765;27;87851;-89
2022/06/24 00:56:20;;;;;;;;;;;22.10;99.90;22.10;99063.00;;;;346083;28;83453;-89
2022/06/24 00:56:32;;;;;;;;;;;22.10;99.90;22.20;99065.00;;;;345775;28;86168;-89
2022/06/24 00:56:45;;;;;;;;;;;22.10;99.90;22.30;99063.00;;;;348876;27;83284;-89
2022/06/24 00:56:56;;;;;;;;;;;22.10;99.90;22.30;99070.00;;;;347246;28;87262;-89
2022/06/24 00:57:08;;;;;;;;;;;22.10;99.90;22.30;99065.00;;;;347423;28;83414;-89
2022/06/24 00:57:20;;;;;;;;;;;22.10;99.90;22.30;99057.00;;;;348715;27;87349;-89
2022/06/24 00:57:38;;;;;;;;;;;22.10;99.90;22.40;99062.00;;;;343262;28;83336;-89
2022/06/24 00:57:49;;;;;;;;;;;22.10;99.90;22.40;99068.00;;;;345793;28;86134;-89
2022/06/24 00:58:01;;;;;;;;;;;22.10;99.90;22.40;99053.00;;;;346177;28;82677;-89
2022/06/24 00:58:15;;;;;;;;;;;22.10;99.90;22.40;99054.00;;;;347286;28;83880;-89
2022/06/24 00:58:27;;;;;;;;;;;22.10;99.90;22.20;99063.00;;;;344346;28;83383;-89
2022/06/24 00:58:39;;;;;;;;;;;22.10;99.90;22.20;99059.00;;;;345825;28;87596;-89
2022/06/24 00:58:58;;;;;;;;;;;22.10;99.90;22.10;99061.00;;;;347332;28;83328;-89
2022/06/24 00:59:09;;;;;;;;;;;22.10;99.90;22.10;99071.00;;;;345612;28;87458;-89
2022/06/24 00:59:21;;;;;;;;;;;22.10;99.90;22.10;99062.00;;;;343303;28;83303;-89
2022/06/24 00:59:34;;;;;;;;;;;22.10;99.90;22.00;99063.00;;;;344510;28;86710;-89
2022/06/24 00:59:47;;;;;;;;;;;22.10;99.90;22.00;99061.00;;;;344741;28;82418;-89
2022/06/24 00:59:58;;;;;;;;;;;22.10;99.90;22.00;99063.00;;;;343122;28;86901;-89
2022/06/24 01:00:14;;;;;;;;;;;22.10;99.90;21.90;99059.00;;;;344677;28;83191;-89
2022/06/24 01:00:27;;;;;;;;;;;22.10;99.90;22.00;99068.00;;;;344505;28;86686;-89
2022/06/24 01:00:45;;;;;;;;;;;22.10;99.90;22.00;99065.00;;;;343272;28;83220;-89
2022/06/24 01:00:56;;;;;;;;;;;22.10;99.90;22.20;99066.00;;;;344480;28;86678;-89
2022/06/24 01:01:08;;;;;;;;;;;22.10;99.90;22.20;99068.00;;;;347057;28;83405;-90
2022/06/24 01:01:34;;;;;;;;;;;22.10;99.90;22.30;99064.00;;;;347305;28;87965;-89
2022/06/24 01:01:49;;;;;;;;;;;22.10;99.90;22.20;99069.00;;;;346027;28;83474;-89
2022/06/24 01:02:04;;;;;;;;;;;22.10;99.90;22.20;99069.00;;;;344481;28;87369;-89
2022/06/24 01:02:16;;;;;;;;;;;22.10;99.90;22.10;99069.00;;;;347529;28;83401;-89
2022/06/24 01:02:28;;;;;;;;;;;22.10;99.90;22.20;99062.00;;;;347287;28;87284;-89
2022/06/24 01:02:41;;;;;;;;;;;22.10;99.90;22.20;99065.00;;;;346139;28;82609;-89
2022/06/24 01:02:59;;;;;;;;;;;22.10;99.90;22.20;99068.00;;;;345983;28;87868;-89
2022/06/24 01:03:14;;;;;;;;;;;22.10;99.90;22.10;99067.00;;;;347526;28;83378;-90
2022/06/24 01:03:40;;;;;;;;;;;22.10;99.90;22.10;99070.00;;;;347370;28;87215;-89
2022/06/24 01:03:54;;;;;;;;;;;22.10;99.90;22.10;99071.00;;;;345956;28;84125;-88
2022/06/24 01:04:08;;;;;;;;;;;22.10;99.90;22.10;99071.00;;;;347299;28;87931;-89
2022/06/24 01:04:20;;;;;;;;;;;22.10;99.90;22.20;99076.00;;;;346106;28;83239;-89
2022/06/24 01:04:32;;;;;;;;;;;22.10;99.90;22.20;99072.00;;;;349752;27;87784;-89
2022/06/24 01:04:44;;;;;;;;;;;22.10;99.90;22.20;99071.00;;;;350009;27;83386;-89
2022/06/24 01:05:08;;;;;;;;;;;22.10;99.90;22.20;99066.00;;;;345722;28;87564;-89
2022/06/24 01:05:20;;;;;;;;;;;22.10;99.90;22.10;99070.00;;;;347389;28;83264;-89
2022/06/24 01:05:32;;;;;;;;;;;22.10;99.90;22.10;99070.00;;;;347345;28;86286;-88
2022/06/24 01:05:44;;;;;;;;;;;22.10;99.90;22.10;99067.00;;;;348735;27;83413;-89
2022/06/24 01:05:56;;;;;;;;;;;22.10;99.90;22.10;99067.00;;;;348584;27;87701;-89
2022/06/24 01:06:08;;;;;;;;;;;22.10;99.90;22.10;99071.00;;;;348854;27;82447;-89
2022/06/24 01:06:20;;;;;;;;;;;22.10;99.90;22.10;99065.00;;;;347361;28;86286;-89
2022/06/24 01:06:31;;;;;;;;;;;22.10;99.90;22.10;99066.00;;;;347405;28;83436;-89
2022/06/24 01:06:44;;;;;;;;;;;22.10;99.90;22.10;99062.00;;;;347364;28;86583;-89
2022/06/24 01:06:55;;;;;;;;;;;22.10;99.90;22.20;99067.00;;;;347194;28;83477;-89
2022/06/24 01:07:07;;;;;;;;;;;22.10;99.90;22.10;99067.00;;;;345883;28;86120;-89
2022/06/24 01:07:19;;;;;;;;;;;22.10;99.90;22.20;99069.00;;;;348806;27;83454;-89
2022/06/24 01:07:35;;;;;;;;;;;22.10;99.90;22.10;99072.00;;;;345751;28;87965;-89
2022/06/24 01:07:46;;;;;;;;;;;22.10;99.90;22.10;99064.00;;;;347406;28;83427;-89
2022/06/24 01:07:59;;;;;;;;;;;22.10;99.90;22.10;99068.00;;;;346683;28;87349;-89
2022/06/24 01:08:13;;;;;;;;;;;22.10;99.90;22.10;99059.00;;;;346545;28;83529;-89
2022/06/24 01:08:24;;;;;;;;;;;22.10;99.90;22.10;99065.00;;;;345881;28;88130;-89
2022/06/24 01:08:36;;;;;;;;;;;22.10;99.90;22.10;99064.00;;;;347405;28;83363;-89
2022/06/24 01:08:55;;;;;;;;;;;22.10;99.90;22.20;99057.00;;;;347215;28;87286;-89
2022/06/24 01:09:09;;;;;;;;;;;22.10;99.90;22.20;99067.00;;;;347390;28;83332;-89
2022/06/24 01:09:21;;;;;;;;;;;22.00;99.90;22.20;99067.00;;;;347354;28;87985;-89
2022/06/24 01:09:33;;;;;;;;;;;22.10;99.90;22.20;99059.00;;;;348817;27;82499;-89
2022/06/24 01:09:45;;;;;;;;;;;22.10;99.90;22.20;99061.00;;;;345870;28;86064;-89
2022/06/24 01:09:58;;;;;;;;;;;22.10;99.90;22.20;99060.00;;;;345550;28;82732;-89
2022/06/24 01:10:10;;;;;;;;;;;22.10;99.90;22.20;99061.00;;;;346228;28;86452;-89
2022/06/24 01:10:21;;;;;;;;;;;22.10;99.90;22.10;99060.00;;;;346099;28;82364;-89
2022/06/24 01:10:34;;;;;;;;;;;22.10;99.90;22.20;99061.00;;;;345802;28;86175;-89
2022/06/24 01:10:47;;;;;;;;;;;22.10;99.90;22.20;99063.00;;;;346014;28;82334;-89
2022/06/24 01:10:59;;;;;;;;;;;22.10;99.90;22.20;99059.00;;;;347116;28;86282;-89
2022/06/24 01:11:11;;;;;;;;;;;22.10;99.90;22.20;99062.00;;;;345989;28;83322;-89
2022/06/24 01:11:29;;;;;;;;;;;22.10;99.90;22.20;99065.00;;;;347375;28;85064;-89
2022/06/24 01:11:42;;;;;;;;;;;22.10;99.90;22.30;99055.00;;;;345543;28;84320;-89
2022/06/24 01:11:54;;;;;;;;;;;22.10;99.90;22.20;99061.00;;;;345795;28;85973;-88
2022/06/24 01:12:06;;;;;;;;;;;22.10;99.90;22.30;99052.00;;;;347514;28;83356;-92
2022/06/24 01:12:18;;;;;;;;;;;22.10;99.90;22.30;99057.00;;;;344666;28;86109;-92
2022/06/24 01:12:31;;;;;;;;;;;22.10;99.90;22.20;99060.00;;;;346027;28;83333;-92